Edgerton, Minnesota
Current Conditions -  °F | °C
As of 2:54 PM on Thursday 27 Nov 2014 (Local Time) from KPQN Reporting Station
Overcast Overcast  
Wind Chill: -6°   Ceiling: 3100
Heat Index:   Visibility: 10mi
Dew Point:   Wind: 10mph
Humidity: 67%   Direction: 160°SSE
Pressure: 30.27"   Gusts: NA
Location:  43.87°N, 96.13°W
Report Text: KPQN 272054Z AUTO 16009KT 10SM OVC031 M13/M18 A3027 RMK AO2
Loading
Personal Weather Stations






























Interactive Weather Map New forecast layout! Learn more

10-Day Weather Forecast

Advertisements
Track Severe Weather on mobile